sensor_id;sensor_type;location;lat;lon;timestamp;pressure;altitude;pressure_sealevel;temperature;humidity
58775;BME280;44545;47.480;19.024;2023-05-12T03:12:08;100211.09;;;11.42;100.00
58775;BME280;44545;47.480;19.024;2023-05-12T03:15:11;100211.09;;;11.42;100.00
58775;BME280;44545;47.480;19.024;2023-05-12T03:18:13;100221.19;;;10.82;100.00
58775;BME280;44545;47.480;19.024;2023-05-12T03:21:15;100220.59;;;10.88;100.00
58775;BME280;44545;47.480;19.024;2023-05-12T03:24:18;100216.50;;;10.93;100.00
58775;BME280;44545;47.480;19.024;2023-05-12T03:27:20;100215.94;;;10.99;100.00
58775;BME280;44545;47.480;19.024;2023-05-12T03:30:23;100224.81;;;11.02;100.00
58775;BME280;44545;47.480;19.024;2023-05-12T03:33:25;100217.59;;;10.97;100.00
58775;BME280;44545;47.480;19.024;2023-05-12T03:36:27;100223.97;;;11.03;100.00
58775;BME280;44545;47.480;19.024;2023-05-12T03:39:30;100224.16;;;11.06;100.00
58775;BME280;44545;47.480;19.024;2023-05-12T03:42:32;100225.69;;;11.03;100.00
58775;BME280;44545;47.480;19.024;2023-05-12T03:45:35;100232.56;;;11.01;100.00
58775;BME280;44545;47.480;19.024;2023-05-12T03:48:37;100230.50;;;11.12;100.00
58775;BME280;44545;47.480;19.024;2023-05-12T03:51:40;100231.28;;;11.11;100.00
58775;BME280;44545;47.480;19.024;2023-05-12T03:54:42;100230.13;;;11.22;100.00
58775;BME280;44545;47.480;19.024;2023-05-12T03:57:46;100236.22;;;11.04;100.00
58775;BME280;44545;47.480;19.024;2023-05-12T04:00:49;100225.94;;;11.07;100.00
58775;BME280;44545;47.480;19.024;2023-05-12T04:03:51;100232.63;;;11.02;100.00
58775;BME280;44545;47.480;19.024;2023-05-12T04:06:54;100237.13;;;11.05;100.00
58775;BME280;44545;47.480;19.024;2023-05-12T04:09:57;100240.19;;;10.96;100.00
58775;BME280;44545;47.480;19.024;2023-05-12T04:13:00;100240.94;;;11.12;100.00
58775;BME280;44545;47.480;19.024;2023-05-12T04:16:04;100242.44;;;11.24;100.00
58775;BME280;44545;47.480;19.024;2023-05-12T04:19:07;100244.59;;;11.33;100.00
58775;BME280;44545;47.480;19.024;2023-05-12T04:22:09;100249.22;;;11.39;100.00
58775;BME280;44545;47.480;19.024;2023-05-12T04:25:12;100253.16;;;11.31;100.00
58775;BME280;44545;47.480;19.024;2023-05-12T04:28:14;100258.63;;;11.35;100.00
58775;BME280;44545;47.480;19.024;2023-05-12T04:31:17;100255.13;;;11.35;100.00
58775;BME280;44545;47.480;19.024;2023-05-12T04:34:19;100249.66;;;11.30;100.00
58775;BME280;44545;47.480;19.024;2023-05-12T04:37:23;100250.69;;;11.34;100.00
58775;BME280;44545;47.480;19.024;2023-05-12T04:40:26;100256.53;;;11.28;100.00
58775;BME280;44545;47.480;19.024;2023-05-12T04:43:28;100260.75;;;11.26;100.00
58775;BME280;44545;47.480;19.024;2023-05-12T04:46:34;100255.91;;;11.16;100.00
58775;BME280;44545;47.480;19.024;2023-05-12T04:49:37;100252.28;;;11.30;100.00
58775;BME280;44545;47.480;19.024;2023-05-12T04:52:40;100249.81;;;11.51;100.00
58775;BME280;44545;47.480;19.024;2023-05-12T04:55:42;100247.34;;;11.36;100.00
58775;BME280;44545;47.480;19.024;2023-05-12T04:58:47;100250.28;;;11.42;100.00
58775;BME280;44545;47.480;19.024;2023-05-12T05:01:50;100253.81;;;11.26;100.00
58775;BME280;44545;47.480;19.024;2023-05-12T05:04:53;100253.41;;;11.35;100.00
58775;BME280;44545;47.480;19.024;2023-05-12T05:07:57;100256.59;;;11.47;100.00
58775;BME280;44545;47.480;19.024;2023-05-12T05:11:00;100252.50;;;11.53;100.00
58775;BME280;44545;47.480;19.024;2023-05-12T05:14:02;100259.66;;;11.57;100.00
58775;BME280;44545;47.480;19.024;2023-05-12T05:17:05;100263.09;;;11.56;100.00
58775;BME280;44545;47.480;19.024;2023-05-12T05:20:10;100265.97;;;11.62;100.00
58775;BME280;44545;47.480;19.024;2023-05-12T05:23:16;100265.94;;;11.60;100.00
58775;BME280;44545;47.480;19.024;2023-05-12T05:26:18;100264.72;;;11.54;100.00
58775;BME280;44545;47.480;19.024;2023-05-12T05:29:24;100257.34;;;11.45;100.00
58775;BME280;44545;47.480;19.024;2023-05-12T05:32:27;100259.72;;;11.40;100.00
58775;BME280;44545;47.480;19.024;2023-05-12T05:35:30;100258.38;;;11.48;100.00
58775;BME280;44545;47.480;19.024;2023-05-12T05:38:33;100256.66;;;11.31;100.00
58775;BME280;44545;47.480;19.024;2023-05-12T05:41:35;100263.53;;;11.29;100.00
58775;BME280;44545;47.480;19.024;2023-05-12T05:44:38;100268.44;;;11.59;100.00
58775;BME280;44545;47.480;19.024;2023-05-12T05:47:41;100270.25;;;11.60;100.00
58775;BME280;44545;47.480;19.024;2023-05-12T05:50:43;100273.41;;;11.53;100.00
58775;BME280;44545;47.480;19.024;2023-05-12T05:53:46;100276.38;;;11.60;100.00
58775;BME280;44545;47.480;19.024;2023-05-12T05:56:51;100271.37;;;11.65;100.00
58775;BME280;44545;47.480;19.024;2023-05-12T05:59:54;100273.28;;;11.69;100.00
58775;BME280;44545;47.480;19.024;2023-05-12T06:02:56;100274.75;;;11.44;100.00
58775;BME280;44545;47.480;19.024;2023-05-12T06:05:59;100284.25;;;11.44;100.00
58775;BME280;44545;47.480;19.024;2023-05-12T06:09:03;100283.69;;;11.49;100.00
58775;BME280;44545;47.480;19.024;2023-05-12T06:12:07;100288.50;;;11.42;100.00
58775;BME280;44545;47.480;19.024;2023-05-12T06:15:10;100285.09;;;11.43;100.00
58775;BME280;44545;47.480;19.024;2023-05-12T06:18:12;100281.13;;;11.33;100.00
58775;BME280;44545;47.480;19.024;2023-05-12T06:21:15;100289.84;;;11.52;100.00
58775;BME280;44545;47.480;19.024;2023-05-12T06:24:17;100286.44;;;11.53;100.00
58775;BME280;44545;47.480;19.024;2023-05-12T06:27:20;100284.72;;;11.71;100.00
58775;BME280;44545;47.480;19.024;2023-05-12T06:30:22;100282.34;;;11.76;100.00
58775;BME280;44545;47.480;19.024;2023-05-12T06:33:29;100290.72;;;11.86;100.00
58775;BME280;44545;47.480;19.024;2023-05-12T06:36:31;100284.06;;;11.75;100.00
58775;BME280;44545;47.480;19.024;2023-05-12T06:39:35;100289.19;;;11.56;100.00
58775;BME280;44545;47.480;19.024;2023-05-12T06:42:37;100288.59;;;11.61;100.00
58775;BME280;44545;47.480;19.024;2023-05-12T06:45:42;100283.00;;;11.89;100.00
58775;BME280;44545;47.480;19.024;2023-05-12T06:48:45;100283.97;;;11.91;100.00
58775;BME280;44545;47.480;19.024;2023-05-12T06:51:48;100285.34;;;11.85;100.00
58775;BME280;44545;47.480;19.024;2023-05-12T06:54:50;100274.37;;;11.90;100.00
58775;BME280;44545;47.480;19.024;2023-05-12T06:57:53;100282.69;;;12.01;100.00
58775;BME280;44545;47.480;19.024;2023-05-12T07:00:57;100285.28;;;12.19;100.00
58775;BME280;44545;47.480;19.024;2023-05-12T07:03:59;100292.97;;;12.16;100.00
58775;BME280;44545;47.480;19.024;2023-05-12T07:07:02;100285.41;;;12.03;100.00
58775;BME280;44545;47.480;19.024;2023-05-12T07:10:05;100290.75;;;12.25;100.00
58775;BME280;44545;47.480;19.024;2023-05-12T07:13:08;100288.37;;;12.30;100.00
58775;BME280;44545;47.480;19.024;2023-05-12T07:16:10;100280.06;;;12.39;100.00
58775;BME280;44545;47.480;19.024;2023-05-12T07:19:12;100280.63;;;12.51;100.00
58775;BME280;44545;47.480;19.024;2023-05-12T07:22:15;100282.81;;;12.42;100.00
58775;BME280;44545;47.480;19.024;2023-05-12T07:25:17;100281.28;;;12.27;100.00
58775;BME280;44545;47.480;19.024;2023-05-12T07:28:20;100286.62;;;12.30;100.00
58775;BME280;44545;47.480;19.024;2023-05-12T07:31:23;100282.38;;;12.32;100.00
58775;BME280;44545;47.480;19.024;2023-05-12T07:34:25;100280.47;;;12.28;100.00
58775;BME280;44545;47.480;19.024;2023-05-12T07:37:27;100281.97;;;12.43;100.00
58775;BME280;44545;47.480;19.024;2023-05-12T07:40:30;100279.62;;;12.68;100.00
58775;BME280;44545;47.480;19.024;2023-05-12T07:43:32;100282.53;;;12.74;100.00
58775;BME280;44545;47.480;19.024;2023-05-12T07:46:35;100276.66;;;12.61;100.00
58775;BME280;44545;47.480;19.024;2023-05-12T07:49:38;100285.97;;;12.54;100.00
58775;BME280;44545;47.480;19.024;2023-05-12T07:52:48;100280.97;;;12.58;100.00
58775;BME280;44545;47.480;19.024;2023-05-12T07:55:51;100287.13;;;12.80;100.00
58775;BME280;44545;47.480;19.024;2023-05-12T07:58:53;100279.16;;;12.98;100.00
58775;BME280;44545;47.480;19.024;2023-05-12T08:01:56;100275.75;;;12.99;100.00
58775;BME280;44545;47.480;19.024;2023-05-12T08:04:58;100280.66;;;12.91;100.00
58775;BME280;44545;47.480;19.024;2023-05-12T08:08:01;100289.09;;;12.86;100.00
58775;BME280;44545;47.480;19.024;2023-05-12T08:11:03;100286.53;;;13.07;100.00
58775;BME280;44545;47.480;19.024;2023-05-12T08:14:05;100282.31;;;13.10;100.00
58775;BME280;44545;47.480;19.024;2023-05-12T08:17:08;100288.31;;;13.27;100.00
58775;BME280;44545;47.480;19.024;2023-05-12T08:20:11;100292.56;;;13.46;100.00
58775;BME280;44545;47.480;19.024;2023-05-12T08:23:16;100292.13;;;13.35;100.00
58775;BME280;44545;47.480;19.024;2023-05-12T08:26:18;100289.19;;;13.28;100.00
58775;BME280;44545;47.480;19.024;2023-05-12T08:29:21;100294.06;;;13.39;100.00
58775;BME280;44545;47.480;19.024;2023-05-12T08:32:23;100291.87;;;13.50;100.00
58775;BME280;44545;47.480;19.024;2023-05-12T08:35:26;100285.44;;;13.64;100.00
58775;BME280;44545;47.480;19.024;2023-05-12T08:38:28;100296.22;;;13.72;100.00
58775;BME280;44545;47.480;19.024;2023-05-12T08:41:42;100295.06;;;13.86;100.00
58775;BME280;44545;47.480;19.024;2023-05-12T08:44:46;100292.84;;;13.97;100.00
58775;BME280;44545;47.480;19.024;2023-05-12T08:47:50;100305.25;;;14.01;100.00
58775;BME280;44545;47.480;19.024;2023-05-12T08:50:55;100308.84;;;14.03;100.00
58775;BME280;44545;47.480;19.024;2023-05-12T08:53:58;100304.06;;;13.93;100.00
58775;BME280;44545;47.480;19.024;2023-05-12T08:57:00;100305.84;;;13.94;98.16
58775;BME280;44545;47.480;19.024;2023-05-12T09:00:08;100302.34;;;13.94;97.97
58775;BME280;44545;47.480;19.024;2023-05-12T09:03:12;100301.91;;;13.83;100.00
58775;BME280;44545;47.480;19.024;2023-05-12T09:06:15;100296.69;;;13.83;98.79
58775;BME280;44545;47.480;19.024;2023-05-12T09:09:19;100300.84;;;13.57;100.00
58775;BME280;44545;47.480;19.024;2023-05-12T09:12:24;100310.38;;;13.34;100.00
58775;BME280;44545;47.480;19.024;2023-05-12T09:15:33;100307.81;;;13.14;100.00
58775;BME280;44545;47.480;19.024;2023-05-12T09:18:48;100315.59;;;12.93;100.00
58775;BME280;44545;47.480;19.024;2023-05-12T09:21:51;100325.94;;;12.71;100.00
58775;BME280;44545;47.480;19.024;2023-05-12T09:24:54;100333.16;;;12.37;100.00
58775;BME280;44545;47.480;19.024;2023-05-12T09:27:56;100328.91;;;12.02;100.00
58775;BME280;44545;47.480;19.024;2023-05-12T09:30:58;100333.84;;;11.78;100.00
58775;BME280;44545;47.480;19.024;2023-05-12T09:34:06;100343.44;;;11.61;100.00
58775;BME280;44545;47.480;19.024;2023-05-12T09:37:08;100351.44;;;11.64;100.00
58775;BME280;44545;47.480;19.024;2023-05-12T09:40:15;100363.91;;;11.70;100.00
58775;BME280;44545;47.480;19.024;2023-05-12T09:43:20;100369.59;;;11.27;100.00
58775;BME280;44545;47.480;19.024;2023-05-12T09:46:27;100371.19;;;11.07;100.00
58775;BME280;44545;47.480;19.024;2023-05-12T09:49:30;100378.25;;;10.93;100.00
58775;BME280;44545;47.480;19.024;2023-05-12T09:52:37;100380.31;;;10.82;100.00
58775;BME280;44545;47.480;19.024;2023-05-12T09:55:44;100380.88;;;10.77;100.00
58775;BME280;44545;47.480;19.024;2023-05-12T09:58:48;100381.78;;;10.77;100.00
58775;BME280;44545;47.480;19.024;2023-05-12T10:01:53;100381.56;;;10.89;100.00
58775;BME280;44545;47.480;19.024;2023-05-12T10:05:02;100390.34;;;11.07;100.00
58775;BME280;44545;47.480;19.024;2023-05-12T10:08:07;100385.81;;;11.21;100.00
58775;BME280;44545;47.480;19.024;2023-05-12T10:11:10;100392.25;;;11.28;100.00
58775;BME280;44545;47.480;19.024;2023-05-12T10:14:13;100381.38;;;11.37;100.00
58775;BME280;44545;47.480;19.024;2023-05-12T10:17:18;100385.00;;;11.22;100.00
58775;BME280;44545;47.480;19.024;2023-05-12T10:20:21;100385.34;;;11.46;100.00
58775;BME280;44545;47.480;19.024;2023-05-12T10:23:25;100372.78;;;11.56;100.00
58775;BME280;44545;47.480;19.024;2023-05-12T10:26:28;100373.66;;;11.56;100.00
58775;BME280;44545;47.480;19.024;2023-05-12T10:29:31;100379.19;;;11.44;100.00
58775;BME280;44545;47.480;19.024;2023-05-12T10:32:34;100366.69;;;11.39;100.00
58775;BME280;44545;47.480;19.024;2023-05-12T10:35:38;100370.03;;;11.36;100.00
58775;BME280;44545;47.480;19.024;2023-05-12T10:38:41;100371.22;;;11.25;100.00
58775;BME280;44545;47.480;19.024;2023-05-12T10:41:48;100372.56;;;11.17;100.00
58775;BME280;44545;47.480;19.024;2023-05-12T10:44:52;100372.13;;;11.25;100.00
58775;BME280;44545;47.480;19.024;2023-05-12T10:48:06;100371.91;;;11.39;100.00
58775;BME280;44545;47.480;19.024;2023-05-12T10:51:18;100377.53;;;11.46;100.00
58775;BME280;44545;47.480;19.024;2023-05-12T10:54:27;100386.19;;;11.45;100.00
58775;BME280;44545;47.480;19.024;2023-05-12T10:57:45;100383.81;;;11.50;100.00
58775;BME280;44545;47.480;19.024;2023-05-12T11:01:03;100380.72;;;11.75;100.00
58775;BME280;44545;47.480;19.024;2023-05-12T11:04:14;100379.59;;;11.70;100.00
58775;BME280;44545;47.480;19.024;2023-05-12T11:07:22;100375.69;;;11.62;100.00
58775;BME280;44545;47.480;19.024;2023-05-12T11:10:27;100374.72;;;11.60;100.00
58775;BME280;44545;47.480;19.024;2023-05-12T11:13:30;100381.09;;;11.48;100.00
58775;BME280;44545;47.480;19.024;2023-05-12T11:16:33;100372.91;;;11.59;100.00
58775;BME280;44545;47.480;19.024;2023-05-12T11:19:36;100375.91;;;11.66;100.00
58775;BME280;44545;47.480;19.024;2023-05-12T11:22:39;100375.69;;;11.62;100.00
58775;BME280;44545;47.480;19.024;2023-05-12T11:25:43;100372.13;;;11.60;100.00
58775;BME280;44545;47.480;19.024;2023-05-12T11:28:45;100378.50;;;11.48;100.00
58775;BME280;44545;47.480;19.024;2023-05-12T11:31:49;100364.84;;;11.54;100.00
58775;BME280;44545;47.480;19.024;2023-05-12T11:34:52;100379.09;;;11.43;100.00
58775;BME280;44545;47.480;19.024;2023-05-12T11:37:59;100378.03;;;11.39;100.00
58775;BME280;44545;47.480;19.024;2023-05-12T11:41:08;100370.06;;;11.54;100.00
58775;BME280;44545;47.480;19.024;2023-05-12T11:44:20;100374.78;;;11.61;100.00
58775;BME280;44545;47.480;19.024;2023-05-12T11:47:24;100362.47;;;11.59;100.00
58775;BME280;44545;47.480;19.024;2023-05-12T11:50:31;100371.44;;;11.64;100.00
58775;BME280;44545;47.480;19.024;2023-05-12T11:53:39;100370.25;;;11.75;100.00
58775;BME280;44545;47.480;19.024;2023-05-12T11:56:52;100370.53;;;11.81;100.00
58775;BME280;44545;47.480;19.024;2023-05-12T12:00:00;100374.12;;;11.83;100.00
58775;BME280;44545;47.480;19.024;2023-05-12T12:03:11;100373.69;;;11.74;100.00
58775;BME280;44545;47.480;19.024;2023-05-12T12:06:14;100380.84;;;11.60;100.00
58775;BME280;44545;47.480;19.024;2023-05-12T12:09:17;100381.44;;;11.55;100.00
58775;BME280;44545;47.480;19.024;2023-05-12T12:12:19;100380.84;;;11.60;100.00
58775;BME280;44545;47.480;19.024;2023-05-12T12:15:22;100375.69;;;11.62;100.00
58775;BME280;44545;47.480;19.024;2023-05-12T12:18:25;100383.37;;;11.59;100.00
58775;BME280;44545;47.480;19.024;2023-05-12T12:21:27;100380.69;;;11.57;100.00
58775;BME280;44545;47.480;19.024;2023-05-12T12:24:30;100388.06;;;11.48;100.00
58775;BME280;44545;47.480;19.024;2023-05-12T12:27:32;100381.72;;;11.61;100.00
58775;BME280;44545;47.480;19.024;2023-05-12T12:30:34;100398.00;;;11.55;100.00
58775;BME280;44545;47.480;19.024;2023-05-12T12:33:37;100392.28;;;11.46;100.00
58775;BME280;44545;47.480;19.024;2023-05-12T12:36:39;100388.06;;;11.48;100.00
58775;BME280;44545;47.480;19.024;2023-05-12T12:39:42;100397.28;;;11.41;100.00
58775;BME280;44545;47.480;19.024;2023-05-12T12:42:44;100398.91;;;11.39;100.00
58775;BME280;44545;47.480;19.024;2023-05-12T12:45:47;100406.03;;;11.25;100.00
58775;BME280;44545;47.480;19.024;2023-05-12T12:48:49;100403.84;;;11.33;100.00
58775;BME280;44545;47.480;19.024;2023-05-12T12:51:51;100399.59;;;11.35;100.00
58775;BME280;44545;47.480;19.024;2023-05-12T12:54:54;100397.47;;;11.28;100.00
58775;BME280;44545;47.480;19.024;2023-05-12T12:57:57;100397.81;;;11.18;100.00
58775;BME280;44545;47.480;19.024;2023-05-12T13:01:00;100397.81;;;11.18;100.00
58775;BME280;44545;47.480;19.024;2023-05-12T13:04:02;100413.09;;;11.10;100.00
58775;BME280;44545;47.480;19.024;2023-05-12T13:07:05;100404.28;;;11.24;100.00
58775;BME280;44545;47.480;19.024;2023-05-12T13:10:08;100402.47;;;11.23;100.00
58775;BME280;44545;47.480;19.024;2023-05-12T13:13:11;100402.34;;;11.38;100.00
58775;BME280;44545;47.480;19.024;2023-05-12T13:16:13;100393.66;;;11.56;100.00
58775;BME280;44545;47.480;19.024;2023-05-12T13:19:16;100403.97;;;11.53;100.00
58775;BME280;44545;47.480;19.024;2023-05-12T13:22:19;100403.09;;;11.36;100.00
58775;BME280;44545;47.480;19.024;2023-05-12T13:25:21;100392.44;;;11.15;100.00
58775;BME280;44545;47.480;19.024;2023-05-12T13:28:24;100392.69;;;11.19;100.00
58775;BME280;44545;47.480;19.024;2023-05-12T13:31:27;100409.59;;;11.10;100.00
58775;BME280;44545;47.480;19.024;2023-05-12T13:34:29;100418.69;;;11.18;100.00
58775;BME280;44545;47.480;19.024;2023-05-12T13:37:31;100410.13;;;11.20;100.00
58775;BME280;44545;47.480;19.024;2023-05-12T13:40:33;100414.78;;;11.26;100.00
58775;BME280;44545;47.480;19.024;2023-05-12T13:43:36;100408.25;;;11.18;100.00
58775;BME280;44545;47.480;19.024;2023-05-12T13:46:38;100411.91;;;11.21;100.00
58775;BME280;44545;47.480;19.024;2023-05-12T13:49:41;100416.91;;;11.17;100.00
58775;BME280;44545;47.480;19.024;2023-05-12T13:52:43;100411.50;;;11.30;100.00
58775;BME280;44545;47.480;19.024;2023-05-12T13:55:45;100413.97;;;11.27;100.00
58775;BME280;44545;47.480;19.024;2023-05-12T13:58:47;100408.97;;;11.32;100.00
58775;BME280;44545;47.480;19.024;2023-05-12T14:01:50;100405.47;;;11.31;100.00
58775;BME280;44545;47.480;19.024;2023-05-12T14:04:52;100405.81;;;11.21;100.00
58775;BME280;44545;47.480;19.024;2023-05-12T14:07:58;100413.47;;;11.18;100.00
58775;BME280;44545;47.480;19.024;2023-05-12T14:11:00;100411.69;;;11.17;100.00
58775;BME280;44545;47.480;19.024;2023-05-12T14:14:03;100411.69;;;11.17;100.00
58775;BME280;44545;47.480;19.024;2023-05-12T14:17:07;100414.13;;;11.14;100.00
58775;BME280;44545;47.480;19.024;2023-05-12T14:20:09;100408.59;;;11.07;100.00
58775;BME280;44545;47.480;19.024;2023-05-12T14:23:12;100410.06;;;11.02;100.00
58775;BME280;44545;47.480;19.024;2023-05-12T14:26:14;100420.75;;;10.91;100.00
58775;BME280;44545;47.480;19.024;2023-05-12T14:29:17;100433.53;;;10.86;100.00
58775;BME280;44545;47.480;19.024;2023-05-12T14:32:19;100429.56;;;10.93;100.00
58775;BME280;44545;47.480;19.024;2023-05-12T14:35:22;100432.91;;;11.06;100.00
58775;BME280;44545;47.480;19.024;2023-05-12T14:38:28;100438.59;;;11.16;100.00
58775;BME280;44545;47.480;19.024;2023-05-12T14:41:30;100436.97;;;11.18;100.00
58775;BME280;44545;47.480;19.024;2023-05-12T14:44:33;100441.69;;;11.09;100.00
58775;BME280;44545;47.480;19.024;2023-05-12T14:47:35;100452.22;;;10.94;100.00
58775;BME280;44545;47.480;19.024;2023-05-12T14:50:37;100442.81;;;10.81;100.00
58775;BME280;44545;47.480;19.024;2023-05-12T14:53:40;100450.16;;;10.88;100.00
58775;BME280;44545;47.480;19.024;2023-05-12T14:56:43;100451.47;;;10.80;100.00
58775;BME280;44545;47.480;19.024;2023-05-12T14:59:45;100455.06;;;10.82;100.00
58775;BME280;44545;47.480;19.024;2023-05-12T15:02:48;100457.41;;;10.94;100.00
58775;BME280;44545;47.480;19.024;2023-05-12T15:05:50;100455.53;;;10.91;100.00
58775;BME280;44545;47.480;19.024;2023-05-12T15:09:08;100451.00;;;10.87;100.00
58775;BME280;44545;47.480;19.024;2023-05-12T15:12:10;100460.13;;;10.95;100.00
58775;BME280;44545;47.480;19.024;2023-05-12T15:15:13;100462.91;;;10.98;100.00
58775;BME280;44545;47.480;19.024;2023-05-12T15:18:15;100465.19;;;10.92;100.00
58775;BME280;44545;47.480;19.024;2023-05-12T15:21:17;100469.09;;;11.00;100.00
